Time;durP1;ratioP1;P1;durP2;ratioP2;P2;SDS_P1;SDS_P2;PMS_P1;PMS_P2;Temp;Humidity;BMP_temperature;BMP_pressure;BME280_temperature;BME280_humidity;BME280_pressure;Samples;Min_cycle;Max_cycle;Signal;HPM_P1;HPM_P2
2022/06/20 00:00:30;;;;;;;;;;;;;;;;;;5056675;28;19916;-43
2022/06/20 00:02:56;;;;;;;;;;;;;;;;;;5056986;28;19916;-41
2022/06/20 00:05:21;;;;;;;;;;;;;;;;;;5056816;28;20265;-40
2022/06/20 00:07:46;;;;;;;;;;;;;;;;;;5056929;28;20356;-43
2022/06/20 00:10:11;;;;;;;;;;;;;;;;;;5056780;28;19992;-43
2022/06/20 00:12:36;;;;;;;;;;;;;;;;;;5056770;28;19951;-43
2022/06/20 00:15:01;;;;;;;;;;;;;;;;;;5056672;28;19908;-43
2022/06/20 00:17:26;;;;;;;;;;;;;;;;;;5056596;28;19913;-44
2022/06/20 00:19:51;;;;;;;;;;;;;;;;;;5072028;28;19923;-43
2022/06/20 00:22:17;;;;;;;;;;;;;;;;;;5056561;28;19915;-43
2022/06/20 00:24:42;;;;;;;;;;;;;;;;;;5056461;28;19909;-43
2022/06/20 00:27:07;;;;;;;;;;;;;;;;;;5056448;28;20407;-43
2022/06/20 00:29:32;;;;;;;;;;;;;;;;;;5056494;28;19951;-44
2022/06/20 00:31:57;;;;;;;;;;;;;;;;;;5056328;28;19909;-43
2022/06/20 00:34:22;;;;;;;;;;;;;;;;;;5056384;28;19927;-43
2022/06/20 00:36:47;;;;;;;;;;;;;;;;;;5056278;28;19913;-44
2022/06/20 00:39:12;;;;;;;;;;;;;;;;;;5056453;28;19995;-43
2022/06/20 00:41:37;;;;;;;;;;;;;;;;;;5056205;28;20007;-43
2022/06/20 00:44:03;;;;;;;;;;;;;;;;;;5056346;28;20303;-42
2022/06/20 00:46:28;;;;;;;;;;;;;;;;;;5071675;28;20304;-42
2022/06/20 00:48:53;;;;;;;;;;;;;;;;;;5056482;28;19913;-42
2022/06/20 00:51:18;;;;;;;;;;;;;;;;;;5056106;28;20007;-43
2022/06/20 00:53:43;;;;;;;;;;;;;;;;;;5056251;28;19991;-43
2022/06/20 00:56:08;;;;;;;;;;;;;;;;;;5056684;28;19959;-43
2022/06/20 00:58:34;;;;;;;;;;;;;;;;;;5056281;28;19955;-43
2022/06/20 01:00:59;;;;;;;;;;;;;;;;;;5055930;28;19916;-44
2022/06/20 01:03:24;;;;;;;;;;;;;;;;;;5056054;28;19959;-43
2022/06/20 01:05:49;;;;;;;;;;;;;;;;;;5056210;28;19994;-42
2022/06/20 01:08:14;;;;;;;;;;;;;;;;;;5055746;28;19920;-43
2022/06/20 01:10:39;;;;;;;;;;;;;;;;;;5055785;28;20249;-42
2022/06/20 01:13:04;;;;;;;;;;;;;;;;;;5055028;28;19912;-43
2022/06/20 01:15:29;;;;;;;;;;;;;;;;;;5055833;28;19909;-42
2022/06/20 01:17:54;;;;;;;;;;;;;;;;;;5056222;28;20001;-43
2022/06/20 01:20:19;;;;;;;;;;;;;;;;;;5055608;28;19909;-42
2022/06/20 01:22:45;;;;;;;;;;;;;;;;;;5055550;28;19909;-43
2022/06/20 01:25:10;;;;;;;;;;;;;;;;;;5055700;28;19913;-43
2022/06/20 01:27:35;;;;;;;;;;;;;;;;;;5055548;28;19913;-43
2022/06/20 01:30:00;;;;;;;;;;;;;;;;;;5055391;28;19972;-42
2022/06/20 01:32:25;;;;;;;;;;;;;;;;;;5055415;28;19909;-43
2022/06/20 01:34:50;;;;;;;;;;;;;;;;;;5055073;28;19982;-43
2022/06/20 01:37:28;;;;;;;;;;;;;;;;;;5055504;28;20260;-43
2022/06/20 01:39:54;;;;;;;;;;;;;;;;;;5055591;28;19913;-43
2022/06/20 01:42:19;;;;;;;;;;;;;;;;;;5055561;28;19915;-42
2022/06/20 01:44:44;;;;;;;;;;;;;;;;;;5055268;28;19913;-42
2022/06/20 01:47:09;;;;;;;;;;;;;;;;;;5071017;28;19966;-42
2022/06/20 01:49:34;;;;;;;;;;;;;;;;;;5055506;28;20323;-42
2022/06/20 01:51:59;;;;;;;;;;;;;;;;;;5055376;28;19916;-43
2022/06/20 01:54:24;;;;;;;;;;;;;;;;;;5055497;28;19909;-43
2022/06/20 01:56:49;;;;;;;;;;;;;;;;;;5055408;28;19957;-43
2022/06/20 01:59:14;;;;;;;;;;;;;;;;;;5055034;28;19913;-43
2022/06/20 02:01:39;;;;;;;;;;;;;;;;;;5055304;28;19955;-43
2022/06/20 02:04:05;;;;;;;;;;;;;;;;;;5055228;28;19999;-43
2022/06/20 02:06:30;;;;;;;;;;;;;;;;;;5055983;28;19909;-43
2022/06/20 02:08:55;;;;;;;;;;;;;;;;;;5055336;28;19908;-43
2022/06/20 02:11:20;;;;;;;;;;;;;;;;;;5055155;28;19955;-42
2022/06/20 02:13:45;;;;;;;;;;;;;;;;;;5055173;28;19910;-43
2022/06/20 02:16:10;;;;;;;;;;;;;;;;;;5054916;28;19912;-43
2022/06/20 02:18:36;;;;;;;;;;;;;;;;;;5055154;28;19909;-42
2022/06/20 02:21:01;;;;;;;;;;;;;;;;;;5055196;28;19908;-42
2022/06/20 02:23:26;;;;;;;;;;;;;;;;;;5055060;28;20324;-43
2022/06/20 02:25:51;;;;;;;;;;;;;;;;;;5055221;28;19952;-43
2022/06/20 02:28:16;;;;;;;;;;;;;;;;;;5054918;28;20282;-44
2022/06/20 02:30:41;;;;;;;;;;;;;;;;;;5054923;28;20413;-43
2022/06/20 02:33:06;;;;;;;;;;;;;;;;;;5054516;28;20325;-43
2022/06/20 02:35:32;;;;;;;;;;;;;;;;;;5054382;28;19981;-43
2022/06/20 02:37:57;;;;;;;;;;;;;;;;;;5054636;28;19963;-42
2022/06/20 02:40:22;;;;;;;;;;;;;;;;;;5054369;28;20356;-43
2022/06/20 02:42:47;;;;;;;;;;;;;;;;;;5054595;28;19908;-43
2022/06/20 02:45:12;;;;;;;;;;;;;;;;;;5054858;28;19948;-42
2022/06/20 02:47:37;;;;;;;;;;;;;;;;;;5054602;28;19954;-43
2022/06/20 02:50:02;;;;;;;;;;;;;;;;;;5054542;28;19913;-42
2022/06/20 02:52:27;;;;;;;;;;;;;;;;;;5054489;28;19908;-43
2022/06/20 02:54:52;;;;;;;;;;;;;;;;;;5054376;28;19962;-43
2022/06/20 02:57:18;;;;;;;;;;;;;;;;;;5054121;28;19913;-43
2022/06/20 02:59:43;;;;;;;;;;;;;;;;;;5054686;28;19944;-43
2022/06/20 03:02:08;;;;;;;;;;;;;;;;;;5054606;28;19935;-43
2022/06/20 03:04:33;;;;;;;;;;;;;;;;;;5054545;28;19955;-43
2022/06/20 03:06:58;;;;;;;;;;;;;;;;;;5054315;28;19916;-43
2022/06/20 03:09:23;;;;;;;;;;;;;;;;;;5054340;28;20306;-43
2022/06/20 03:11:48;;;;;;;;;;;;;;;;;;5054206;28;20326;-43
2022/06/20 03:14:13;;;;;;;;;;;;;;;;;;5054501;28;20359;-43
2022/06/20 03:16:42;;;;;;;;;;;;;;;;;;5054316;28;19920;-43
2022/06/20 03:19:07;;;;;;;;;;;;;;;;;;5054311;28;19909;-42
2022/06/20 03:21:32;;;;;;;;;;;;;;;;;;5054309;28;20378;-43
2022/06/20 03:23:57;;;;;;;;;;;;;;;;;;5054344;28;20283;-43
2022/06/20 03:26:22;;;;;;;;;;;;;;;;;;5054248;28;19916;-42
2022/06/20 03:28:47;;;;;;;;;;;;;;;;;;5054003;28;19915;-42
2022/06/20 03:31:12;;;;;;;;;;;;;;;;;;5054263;28;19915;-43
2022/06/20 03:33:37;;;;;;;;;;;;;;;;;;5053806;28;19924;-43
2022/06/20 03:36:03;;;;;;;;;;;;;;;;;;5055887;28;19923;-43
2022/06/20 03:38:28;;;;;;;;;;;;;;;;;;5057687;28;19909;-42
2022/06/20 03:40:53;;;;;;;;;;;;;;;;;;5057432;28;19995;-43
2022/06/20 03:43:18;;;;;;;;;;;;;;;;;;5057650;28;19931;-43
2022/06/20 03:45:43;;;;;;;;;;;;;;;;;;5057538;28;20343;-43
2022/06/20 03:48:08;;;;;;;;;;;;;;;;;;5058096;28;19909;-42
2022/06/20 03:50:35;;;;;;;;;;;;;;;;;;5057629;28;19913;-43
2022/06/20 03:53:01;;;;;;;;;;;;;;;;;;5072738;28;19909;-43
2022/06/20 03:55:27;;;;;;;;;;;;;;;;;;5057422;28;19913;-43
2022/06/20 03:57:52;;;;;;;;;;;;;;;;;;5057240;28;19920;-43
2022/06/20 04:00:17;;;;;;;;;;;;;;;;;;5057311;28;19955;-43
2022/06/20 04:02:43;;;;;;;;;;;;;;;;;;5057105;28;19909;-43
2022/06/20 04:05:08;;;;;;;;;;;;;;;;;;5057387;28;19908;-43
2022/06/20 04:07:33;;;;;;;;;;;;;;;;;;5057669;28;20430;-43
2022/06/20 04:12:42;;;;;;;;;;;;;;;;;;5057084;28;19954;-42
2022/06/20 04:15:07;;;;;;;;;;;;;;;;;;5057108;28;19912;-43
2022/06/20 04:20:16;;;;;;;;;;;;;;;;;;5057307;28;19919;-43
2022/06/20 04:22:41;;;;;;;;;;;;;;;;;;5056708;28;19999;-42
2022/06/20 04:25:06;;;;;;;;;;;;;;;;;;5056950;28;19916;-43
2022/06/20 04:27:31;;;;;;;;;;;;;;;;;;5038392;28;19913;-42
2022/06/20 04:29:56;;;;;;;;;;;;;;;;;;5036780;28;19916;-43
2022/06/20 04:32:22;;;;;;;;;;;;;;;;;;5036836;28;19916;-43
2022/06/20 04:34:47;;;;;;;;;;;;;;;;;;5036569;28;19928;-43
2022/06/20 04:37:12;;;;;;;;;;;;;;;;;;5036922;28;19919;-43
2022/06/20 04:39:39;;;;;;;;;;;;;;;;;;5036450;28;20398;-43
2022/06/20 04:42:04;;;;;;;;;;;;;;;;;;5036743;28;19909;-43
2022/06/20 04:44:29;;;;;;;;;;;;;;;;;;5036597;28;19910;-43
2022/06/20 04:46:54;;;;;;;;;;;;;;;;;;5035360;28;20360;-43
2022/06/20 04:49:19;;;;;;;;;;;;;;;;;;5036675;28;20284;-43
2022/06/20 04:51:45;;;;;;;;;;;;;;;;;;5036362;28;20360;-43
2022/06/20 04:54:12;;;;;;;;;;;;;;;;;;5036459;28;19917;-43
2022/06/20 04:56:38;;;;;;;;;;;;;;;;;;5040644;28;19948;-42
2022/06/20 04:59:03;;;;;;;;;;;;;;;;;;5036399;28;19963;-43
2022/06/20 05:01:29;;;;;;;;;;;;;;;;;;5036303;28;20314;-43
2022/06/20 05:03:55;;;;;;;;;;;;;;;;;;5045600;28;19917;-43
2022/06/20 05:06:20;;;;;;;;;;;;;;;;;;5055833;28;20435;-43
2022/06/20 05:08:45;;;;;;;;;;;;;;;;;;5055979;28;19912;-42
2022/06/20 05:11:10;;;;;;;;;;;;;;;;;;5055971;28;19944;-43
2022/06/20 05:13:35;;;;;;;;;;;;;;;;;;5056074;28;19944;-43
2022/06/20 05:16:13;;;;;;;;;;;;;;;;;;5055829;28;20015;-43
2022/06/20 05:18:38;;;;;;;;;;;;;;;;;;5052833;28;19912;-43
2022/06/20 05:21:03;;;;;;;;;;;;;;;;;;5055853;28;19915;-44
2022/06/20 05:23:28;;;;;;;;;;;;;;;;;;5055811;28;19909;-46
2022/06/20 05:25:53;;;;;;;;;;;;;;;;;;5051043;28;19919;-45
2022/06/20 05:28:18;;;;;;;;;;;;;;;;;;5048317;28;19913;-48
2022/06/20 05:30:43;;;;;;;;;;;;;;;;;;5048919;28;19940;-45
2022/06/20 05:33:08;;;;;;;;;;;;;;;;;;5053826;28;20011;-48
2022/06/20 05:35:33;;;;;;;;;;;;;;;;;;5050384;28;20413;-45
2022/06/20 05:37:59;;;;;;;;;;;;;;;;;;5049135;28;19913;-45
2022/06/20 05:40:24;;;;;;;;;;;;;;;;;;5052561;28;19964;-45
2022/06/20 05:42:49;;;;;;;;;;;;;;;;;;5042973;28;20630;-45
2022/06/20 05:45:14;;;;;;;;;;;;;;;;;;5040059;28;20387;-45
2022/06/20 05:47:39;;;;;;;;;;;;;;;;;;5038472;28;20372;-46
2022/06/20 05:50:04;;;;;;;;;;;;;;;;;;5045692;28;19928;-44
2022/06/20 05:52:30;;;;;;;;;;;;;;;;;;5040624;28;20398;-47
2022/06/20 05:54:55;;;;;;;;;;;;;;;;;;5037451;28;19927;-43
2022/06/20 05:57:20;;;;;;;;;;;;;;;;;;5023726;28;20352;-45
2022/06/20 05:59:45;;;;;;;;;;;;;;;;;;5024761;28;19928;-45
2022/06/20 06:02:10;;;;;;;;;;;;;;;;;;5012161;28;20013;-47
2022/06/20 06:04:35;;;;;;;;;;;;;;;;;;5012266;28;19967;-46
2022/06/20 06:07:00;;;;;;;;;;;;;;;;;;5014235;28;19921;-48
2022/06/20 06:09:26;;;;;;;;;;;;;;;;;;5005744;28;19943;-46
2022/06/20 06:11:52;;;;;;;;;;;;;;;;;;4992163;28;20534;-47
2022/06/20 06:14:18;;;;;;;;;;;;;;;;;;4967705;28;20972;-46
2022/06/20 06:16:46;;;;;;;;;;;;;;;;;;4911589;28;19932;-47
2022/06/20 06:19:11;;;;;;;;;;;;;;;;;;4866198;28;19928;-46
2022/06/20 06:21:36;;;;;;;;;;;;;;;;;;4843093;28;20611;-47
2022/06/20 06:24:01;;;;;;;;;;;;;;;;;;4740932;28;32498;-48
2022/06/20 06:26:26;;;;;;;;;;;;;;;;;;4685305;28;20966;-46
2022/06/20 06:28:51;;;;;;;;;;;;;;;;;;4561015;28;22163;-47
2022/06/20 06:31:17;;;;;;;;;;;;;;;;;;4567566;28;20647;-46
2022/06/20 06:33:42;;;;;;;;;;;;;;;;;;4662856;28;20170;-45
2022/06/20 06:36:07;;;;;;;;;;;;;;;;;;4721170;28;21422;-48
2022/06/20 06:38:32;;;;;;;;;;;;;;;;;;4773680;28;22486;-44
2022/06/20 06:40:57;;;;;;;;;;;;;;;;;;4822447;28;22599;-46
2022/06/20 06:43:22;;;;;;;;;;;;;;;;;;4760867;28;19928;-45
2022/06/20 06:45:48;;;;;;;;;;;;;;;;;;4814353;28;21886;-44
2022/06/20 06:48:13;;;;;;;;;;;;;;;;;;4788104;28;20067;-47
2022/06/20 06:50:38;;;;;;;;;;;;;;;;;;4804650;28;26924;-46
2022/06/20 06:53:03;;;;;;;;;;;;;;;;;;4825506;28;20121;-47
2022/06/20 06:55:28;;;;;;;;;;;;;;;;;;4820579;28;36242;-47
2022/06/20 06:57:54;;;;;;;;;;;;;;;;;;4816664;28;26252;-47
2022/06/20 07:00:20;;;;;;;;;;;;;;;;;;4797157;28;31498;-50
2022/06/20 07:02:45;;;;;;;;;;;;;;;;;;4790768;28;22523;-48
2022/06/20 07:05:11;;;;;;;;;;;;;;;;;;4793818;28;19921;-47
2022/06/20 07:07:37;;;;;;;;;;;;;;;;;;4792878;28;20772;-47
2022/06/20 07:10:02;;;;;;;;;;;;;;;;;;4755814;28;23695;-46
2022/06/20 07:12:27;;;;;;;;;;;;;;;;;;4786671;28;19921;-46
2022/06/20 07:14:52;;;;;;;;;;;;;;;;;;4720148;28;21239;-46
2022/06/20 07:17:18;;;;;;;;;;;;;;;;;;4662736;28;21511;-46
2022/06/20 07:19:43;;;;;;;;;;;;;;;;;;4588036;28;22398;-46
2022/06/20 07:22:09;;;;;;;;;;;;;;;;;;4515115;28;21418;-49
2022/06/20 07:24:34;;;;;;;;;;;;;;;;;;4426706;28;32334;-48
2022/06/20 07:26:59;;;;;;;;;;;;;;;;;;4534169;28;21263;-48
2022/06/20 07:29:24;;;;;;;;;;;;;;;;;;4669725;28;29091;-47
2022/06/20 07:31:49;;;;;;;;;;;;;;;;;;4723271;28;23438;-48
2022/06/20 07:34:14;;;;;;;;;;;;;;;;;;4669991;28;23695;-47
2022/06/20 07:36:39;;;;;;;;;;;;;;;;;;4662363;28;28856;-46
2022/06/20 07:39:04;;;;;;;;;;;;;;;;;;4720384;28;27376;-47
2022/06/20 07:41:30;;;;;;;;;;;;;;;;;;4692192;28;31044;-48
2022/06/20 07:43:55;;;;;;;;;;;;;;;;;;4710965;28;43960;-51
2022/06/20 07:46:20;;;;;;;;;;;;;;;;;;4675849;28;39617;-49
2022/06/20 07:48:45;;;;;;;;;;;;;;;;;;4710103;28;45430;-49
2022/06/20 07:51:10;;;;;;;;;;;;;;;;;;4713191;28;22917;-46
2022/06/20 07:53:35;;;;;;;;;;;;;;;;;;4697980;28;44899;-48
2022/06/20 07:56:01;;;;;;;;;;;;;;;;;;4716738;28;20800;-48
2022/06/20 07:58:26;;;;;;;;;;;;;;;;;;4730340;28;28636;-48
2022/06/20 08:00:52;;;;;;;;;;;;;;;;;;4678780;28;21818;-48
2022/06/20 08:03:17;;;;;;;;;;;;;;;;;;4719610;28;20029;-46
2022/06/20 08:05:42;;;;;;;;;;;;;;;;;;4694263;28;39433;-48
2022/06/20 08:08:07;;;;;;;;;;;;;;;;;;4647526;28;21540;-48
2022/06/20 08:10:32;;;;;;;;;;;;;;;;;;4618830;28;21792;-46
2022/06/20 08:12:57;;;;;;;;;;;;;;;;;;4401020;28;24720;-46
2022/06/20 08:15:22;;;;;;;;;;;;;;;;;;4540671;28;36227;-47
2022/06/20 08:17:48;;;;;;;;;;;;;;;;;;4646895;28;38056;-48
2022/06/20 08:20:13;;;;;;;;;;;;;;;;;;4759825;28;24026;-48
2022/06/20 08:22:38;;;;;;;;;;;;;;;;;;4788071;28;26845;-48
2022/06/20 08:25:03;;;;;;;;;;;;;;;;;;4774883;28;29311;-48
2022/06/20 08:27:28;;;;;;;;;;;;;;;;;;4737780;28;21255;-45
2022/06/20 08:29:53;;;;;;;;;;;;;;;;;;4718110;28;32628;-46
2022/06/20 08:32:22;;;;;;;;;;;;;;;;;;4732076;28;37111;-49
2022/06/20 08:34:47;;;;;;;;;;;;;;;;;;4746970;28;30496;-48
2022/06/20 08:37:12;;;;;;;;;;;;;;;;;;4776427;28;22884;-48
2022/06/20 08:39:37;;;;;;;;;;;;;;;;;;4781647;28;22856;-48
2022/06/20 08:42:02;;;;;;;;;;;;;;;;;;4775565;28;24262;-49
2022/06/20 08:44:30;;;;;;;;;;;;;;;;;;4766382;28;28321;-49
2022/06/20 08:46:56;;;;;;;;;;;;;;;;;;4783768;28;25261;-47
2022/06/20 08:49:22;;;;;;;;;;;;;;;;;;4784461;28;21575;-48
2022/06/20 08:52:06;;;;;;;;;;;;;;;;;;4780093;28;33014;-47
2022/06/20 08:54:31;;;;;;;;;;;;;;;;;;4770139;28;31881;-49
2022/06/20 08:56:56;;;;;;;;;;;;;;;;;;4776716;28;33234;-48
2022/06/20 08:59:22;;;;;;;;;;;;;;;;;;4781213;28;31524;-49
2022/06/20 09:01:47;;;;;;;;;;;;;;;;;;4766609;28;24418;-48
2022/06/20 09:04:12;;;;;;;;;;;;;;;;;;4774827;28;21960;-50
2022/06/20 09:06:37;;;;;;;;;;;;;;;;;;4764740;28;34643;-49
2022/06/20 09:09:03;;;;;;;;;;;;;;;;;;4771216;28;25390;-48
2022/06/20 09:11:28;;;;;;;;;;;;;;;;;;4769626;28;25735;-47
2022/06/20 09:13:53;;;;;;;;;;;;;;;;;;4754063;28;27841;-49
2022/06/20 09:16:19;;;;;;;;;;;;;;;;;;4715391;28;26201;-46
2022/06/20 09:18:44;;;;;;;;;;;;;;;;;;4678788;28;22337;-47
2022/06/20 09:21:09;;;;;;;;;;;;;;;;;;4572154;28;25408;-47
2022/06/20 09:23:34;;;;;;;;;;;;;;;;;;4372016;28;26988;-47
2022/06/20 09:25:59;;;;;;;;;;;;;;;;;;4507770;28;39145;-49
2022/06/20 09:28:25;;;;;;;;;;;;;;;;;;4554160;28;28016;-49
2022/06/20 09:30:50;;;;;;;;;;;;;;;;;;4689844;28;42919;-47
2022/06/20 09:33:15;;;;;;;;;;;;;;;;;;4733798;28;27961;-46
2022/06/20 09:35:40;;;;;;;;;;;;;;;;;;4740680;28;37370;-45
2022/06/20 09:38:06;;;;;;;;;;;;;;;;;;4725449;28;29506;-47
2022/06/20 09:40:31;;;;;;;;;;;;;;;;;;4761774;28;25908;-49
2022/06/20 09:42:56;;;;;;;;;;;;;;;;;;4718995;28;30872;-46
2022/06/20 09:45:21;;;;;;;;;;;;;;;;;;4763854;28;20590;-45
2022/06/20 09:47:48;;;;;;;;;;;;;;;;;;4774914;28;30260;-47
2022/06/20 09:50:14;;;;;;;;;;;;;;;;;;4786848;28;28535;-47
2022/06/20 09:52:39;;;;;;;;;;;;;;;;;;4743231;28;23750;-47
2022/06/20 09:55:04;;;;;;;;;;;;;;;;;;4759943;28;26916;-47
2022/06/20 09:57:32;;;;;;;;;;;;;;;;;;4787460;28;32231;-49
2022/06/20 09:59:57;;;;;;;;;;;;;;;;;;4772924;28;36726;-48
2022/06/20 10:02:22;;;;;;;;;;;;;;;;;;4745117;28;39198;-48
2022/06/20 10:04:47;;;;;;;;;;;;;;;;;;4744094;28;33973;-47
2022/06/20 10:07:12;;;;;;;;;;;;;;;;;;4708696;28;37813;-48
2022/06/20 10:09:38;;;;;;;;;;;;;;;;;;4660371;28;38369;-47
2022/06/20 10:12:03;;;;;;;;;;;;;;;;;;4546487;28;40774;-48
2022/06/20 10:14:28;;;;;;;;;;;;;;;;;;4426099;28;40173;-48
2022/06/20 10:16:53;;;;;;;;;;;;;;;;;;4542376;28;42733;-49
2022/06/20 10:19:18;;;;;;;;;;;;;;;;;;4593693;28;68649;-47
2022/06/20 10:21:43;;;;;;;;;;;;;;;;;;4645730;28;45505;-48
2022/06/20 10:24:09;;;;;;;;;;;;;;;;;;4641665;28;30060;-48
2022/06/20 10:26:34;;;;;;;;;;;;;;;;;;4734748;28;31724;-49
2022/06/20 10:28:59;;;;;;;;;;;;;;;;;;4736956;28;31018;-45
2022/06/20 10:31:25;;;;;;;;;;;;;;;;;;4723460;28;42465;-47
2022/06/20 10:33:50;;;;;;;;;;;;;;;;;;4700853;28;28545;-46
2022/06/20 10:36:15;;;;;;;;;;;;;;;;;;4667740;28;38172;-45
2022/06/20 10:38:41;;;;;;;;;;;;;;;;;;4584777;28;39505;-47
2022/06/20 10:41:06;;;;;;;;;;;;;;;;;;4632378;28;43270;-46
2022/06/20 10:43:31;;;;;;;;;;;;;;;;;;4660996;28;42905;-48
2022/06/20 10:45:56;;;;;;;;;;;;;;;;;;4650859;28;23302;-47
2022/06/20 10:48:22;;;;;;;;;;;;;;;;;;4712237;28;21492;-47
2022/06/20 10:50:47;;;;;;;;;;;;;;;;;;4722268;28;27831;-47
2022/06/20 10:53:12;;;;;;;;;;;;;;;;;;4710602;28;29653;-49
2022/06/20 10:55:37;;;;;;;;;;;;;;;;;;4755857;28;24477;-47
2022/06/20 10:58:02;;;;;;;;;;;;;;;;;;4724210;28;22192;-49
2022/06/20 11:00:28;;;;;;;;;;;;;;;;;;4654169;28;19988;-48
2022/06/20 11:02:53;;;;;;;;;;;;;;;;;;4591334;28;22126;-47
2022/06/20 11:05:18;;;;;;;;;;;;;;;;;;4718764;28;20131;-47
2022/06/20 11:07:43;;;;;;;;;;;;;;;;;;4772469;28;23081;-48
2022/06/20 11:10:08;;;;;;;;;;;;;;;;;;4792510;28;20069;-48
2022/06/20 11:12:33;;;;;;;;;;;;;;;;;;4792352;28;24631;-48
2022/06/20 11:14:59;;;;;;;;;;;;;;;;;;4795272;28;21958;-48
2022/06/20 11:17:24;;;;;;;;;;;;;;;;;;4812040;28;26301;-46
2022/06/20 11:19:49;;;;;;;;;;;;;;;;;;4807547;28;23823;-47
2022/06/20 11:22:14;;;;;;;;;;;;;;;;;;4799548;28;20339;-47
2022/06/20 11:24:40;;;;;;;;;;;;;;;;;;4801652;28;24928;-48
2022/06/20 11:27:05;;;;;;;;;;;;;;;;;;4822852;28;20078;-48
2022/06/20 11:29:30;;;;;;;;;;;;;;;;;;4766514;28;24762;-50
2022/06/20 11:31:55;;;;;;;;;;;;;;;;;;4726645;28;26045;-47
2022/06/20 11:34:24;;;;;;;;;;;;;;;;;;4724032;22;39696;-47
2022/06/20 11:36:49;;;;;;;;;;;;;;;;;;4684457;28;33186;-48
2022/06/20 11:39:14;;;;;;;;;;;;;;;;;;4722539;28;36316;-47
2022/06/20 11:41:39;;;;;;;;;;;;;;;;;;4770593;28;35599;-47
2022/06/20 11:44:07;;;;;;;;;;;;;;;;;;4777537;28;30601;-48
2022/06/20 11:46:32;;;;;;;;;;;;;;;;;;4721416;28;40941;-48
2022/06/20 11:48:57;;;;;;;;;;;;;;;;;;4784787;28;31585;-47
2022/06/20 11:51:23;;;;;;;;;;;;;;;;;;4821369;28;45429;-47
2022/06/20 11:53:48;;;;;;;;;;;;;;;;;;4801238;28;37064;-47
2022/06/20 11:56:13;;;;;;;;;;;;;;;;;;4754247;28;69018;-48
2022/06/20 11:58:38;;;;;;;;;;;;;;;;;;4798078;28;32943;-47
2022/06/20 12:01:03;;;;;;;;;;;;;;;;;;4800526;28;37693;-48
2022/06/20 12:03:29;;;;;;;;;;;;;;;;;;4769831;28;29102;-48
2022/06/20 12:05:54;;;;;;;;;;;;;;;;;;4790245;28;34147;-48
2022/06/20 12:08:19;;;;;;;;;;;;;;;;;;4815869;28;24639;-47
2022/06/20 12:10:44;;;;;;;;;;;;;;;;;;4780008;28;37214;-47
2022/06/20 12:13:09;;;;;;;;;;;;;;;;;;4735035;28;28146;-49
2022/06/20 12:15:34;;;;;;;;;;;;;;;;;;4781943;28;25184;-47
2022/06/20 12:17:59;;;;;;;;;;;;;;;;;;4746528;28;31167;-46
2022/06/20 12:23:21;;;;;;;;;;;;;;;;;;4771848;28;22439;-47
2022/06/20 12:25:46;;;;;;;;;;;;;;;;;;4765550;28;25657;-46
2022/06/20 12:28:14;;;;;;;;;;;;;;;;;;4838051;28;19920;-46
2022/06/20 12:30:40;;;;;;;;;;;;;;;;;;4850844;28;22406;-46
2022/06/20 12:33:05;;;;;;;;;;;;;;;;;;4909783;28;19928;-47
2022/06/20 12:35:31;;;;;;;;;;;;;;;;;;4951527;28;19928;-47
2022/06/20 12:37:56;;;;;;;;;;;;;;;;;;4944383;28;21729;-47
2022/06/20 12:40:21;;;;;;;;;;;;;;;;;;4937831;28;19920;-47
2022/06/20 12:42:46;;;;;;;;;;;;;;;;;;4937412;28;21890;-46
2022/06/20 12:45:12;;;;;;;;;;;;;;;;;;4949634;28;19975;-46
2022/06/20 12:47:37;;;;;;;;;;;;;;;;;;4950649;28;22330;-47
2022/06/20 12:50:02;;;;;;;;;;;;;;;;;;4951762;28;19925;-47
2022/06/20 12:52:27;;;;;;;;;;;;;;;;;;4949953;28;19920;-47
2022/06/20 12:54:52;;;;;;;;;;;;;;;;;;4933908;28;20116;-46
2022/06/20 12:57:17;;;;;;;;;;;;;;;;;;4951250;28;21016;-46
2022/06/20 12:59:43;;;;;;;;;;;;;;;;;;4936523;28;20673;-47
2022/06/20 13:02:08;;;;;;;;;;;;;;;;;;4934573;28;20306;-48
2022/06/20 13:04:33;;;;;;;;;;;;;;;;;;4946829;28;19958;-46
2022/06/20 13:06:58;;;;;;;;;;;;;;;;;;4924340;28;19920;-46
2022/06/20 13:09:23;;;;;;;;;;;;;;;;;;4943798;28;19931;-46
2022/06/20 13:11:49;;;;;;;;;;;;;;;;;;4849848;28;21459;-46
2022/06/20 13:14:14;;;;;;;;;;;;;;;;;;4742849;28;21200;-47
2022/06/20 13:16:39;;;;;;;;;;;;;;;;;;4815798;28;22561;-47
2022/06/20 13:19:04;;;;;;;;;;;;;;;;;;4892399;28;19951;-47
2022/06/20 13:21:29;;;;;;;;;;;;;;;;;;4929313;28;20121;-46
2022/06/20 13:23:54;;;;;;;;;;;;;;;;;;4942829;28;19931;-45
2022/06/20 13:26:19;;;;;;;;;;;;;;;;;;4946165;28;21298;-45
2022/06/20 13:28:51;;;;;;;;;;;;;;;;;;4951885;27;2001058;-46
2022/06/20 13:31:16;;;;;;;;;;;;;;;;;;5038345;27;21819;-46
2022/06/20 13:33:41;;;;;;;;;;;;;;;;;;5060630;27;40532;-45
2022/06/20 13:36:07;;;;;;;;;;;;;;;;;;5066217;27;19923;-45
2022/06/20 13:38:32;;;;;;;;;;;;;;;;;;5065876;27;19920;-45
2022/06/20 13:40:57;;;;;;;;;;;;;;;;;;5070754;27;19920;-46
2022/06/20 13:43:22;;;;;;;;;;;;;;;;;;5066914;27;19916;-45
2022/06/20 13:45:47;;;;;;;;;;;;;;;;;;5062868;27;19919;-45
2022/06/20 13:48:12;;;;;;;;;;;;;;;;;;5072726;27;20579;-44
2022/06/20 13:50:37;;;;;;;;;;;;;;;;;;5064377;27;19978;-47
2022/06/20 13:53:02;;;;;;;;;;;;;;;;;;5066832;27;20081;-46
2022/06/20 13:55:27;;;;;;;;;;;;;;;;;;5068528;27;19934;-45
2022/06/20 13:57:53;;;;;;;;;;;;;;;;;;5068671;27;21442;-45
2022/06/20 14:00:18;;;;;;;;;;;;;;;;;;5036519;27;20561;-44
2022/06/20 14:02:43;;;;;;;;;;;;;;;;;;5007992;27;20483;-44
2022/06/20 14:05:08;;;;;;;;;;;;;;;;;;5002164;27;19978;-43
2022/06/20 14:07:34;;;;;;;;;;;;;;;;;;5041527;27;20010;-47
2022/06/20 14:09:59;;;;;;;;;;;;;;;;;;5072748;27;20371;-46
2022/06/20 14:12:24;;;;;;;;;;;;;;;;;;5088555;27;19933;-47
2022/06/20 14:14:49;;;;;;;;;;;;;;;;;;5103144;27;19912;-47
2022/06/20 14:17:14;;;;;;;;;;;;;;;;;;5111672;27;19974;-45
2022/06/20 14:19:39;;;;;;;;;;;;;;;;;;5113789;27;19912;-45
2022/06/20 14:22:04;;;;;;;;;;;;;;;;;;5111458;27;19920;-45
2022/06/20 14:24:30;;;;;;;;;;;;;;;;;;5115081;28;20699;-44
2022/06/20 14:26:55;;;;;;;;;;;;;;;;;;5111970;27;19968;-45
2022/06/20 14:29:20;;;;;;;;;;;;;;;;;;5106161;27;20320;-46
2022/06/20 14:31:46;;;;;;;;;;;;;;;;;;5112596;28;19927;-45
2022/06/20 14:34:11;;;;;;;;;;;;;;;;;;5115084;28;20606;-45
2022/06/20 14:36:37;;;;;;;;;;;;;;;;;;5106234;27;19920;-46
2022/06/20 14:39:02;;;;;;;;;;;;;;;;;;5106596;28;19911;-45
2022/06/20 14:41:39;;;;;;;;;;;;;;;;;;5095156;28;19972;-45
2022/06/20 14:44:06;;;;;;;;;;;;;;;;;;5093098;28;19920;-45
2022/06/20 14:46:31;;;;;;;;;;;;;;;;;;5098367;27;19912;-45
2022/06/20 14:48:56;;;;;;;;;;;;;;;;;;5102349;27;19918;-44
2022/06/20 14:51:22;;;;;;;;;;;;;;;;;;5095267;27;19924;-46
2022/06/20 14:53:47;;;;;;;;;;;;;;;;;;5096975;28;19927;-45
2022/06/20 14:56:13;;;;;;;;;;;;;;;;;;5092534;27;20005;-46
2022/06/20 14:58:38;;;;;;;;;;;;;;;;;;5098137;27;20275;-46
2022/06/20 15:01:03;;;;;;;;;;;;;;;;;;5099438;27;19919;-45
2022/06/20 15:03:31;;;;;;;;;;;;;;;;;;5103970;27;19919;-45
2022/06/20 15:05:56;;;;;;;;;;;;;;;;;;5104864;28;19920;-45
2022/06/20 15:08:21;;;;;;;;;;;;;;;;;;5110759;28;19919;-47
2022/06/20 15:10:46;;;;;;;;;;;;;;;;;;5103613;27;19919;-44
2022/06/20 15:13:11;;;;;;;;;;;;;;;;;;5106834;27;20370;-45
2022/06/20 15:15:37;;;;;;;;;;;;;;;;;;5113844;27;19912;-45
2022/06/20 15:18:02;;;;;;;;;;;;;;;;;;5102337;27;20355;-46
2022/06/20 15:20:27;;;;;;;;;;;;;;;;;;5108602;27;19911;-46
2022/06/20 15:22:52;;;;;;;;;;;;;;;;;;5106844;28;19994;-44
2022/06/20 15:25:17;;;;;;;;;;;;;;;;;;5109735;28;19912;-46
2022/06/20 15:27:42;;;;;;;;;;;;;;;;;;5105177;28;19970;-44
2022/06/20 15:30:07;;;;;;;;;;;;;;;;;;5107045;28;19934;-45
2022/06/20 15:32:33;;;;;;;;;;;;;;;;;;5114518;28;19912;-45
2022/06/20 15:34:58;;;;;;;;;;;;;;;;;;5110413;28;20007;-46
2022/06/20 15:37:23;;;;;;;;;;;;;;;;;;5111118;28;19943;-43
2022/06/20 15:39:48;;;;;;;;;;;;;;;;;;5112466;28;19947;-45
2022/06/20 15:42:22;;;;;;;;;;;;;;;;;;5114370;28;19923;-46
2022/06/20 15:44:50;;;;;;;;;;;;;;;;;;5114481;28;20274;-43
2022/06/20 15:47:15;;;;;;;;;;;;;;;;;;5113088;28;19923;-44
2022/06/20 15:49:40;;;;;;;;;;;;;;;;;;5112304;28;19920;-45
2022/06/20 15:52:05;;;;;;;;;;;;;;;;;;5110173;28;19934;-45
2022/06/20 15:54:31;;;;;;;;;;;;;;;;;;5100367;28;20371;-45
2022/06/20 15:56:56;;;;;;;;;;;;;;;;;;5107528;27;20002;-45
2022/06/20 15:59:21;;;;;;;;;;;;;;;;;;5115942;28;19911;-46
2022/06/20 16:01:46;;;;;;;;;;;;;;;;;;5108040;28;19919;-45
2022/06/20 16:04:11;;;;;;;;;;;;;;;;;;5113105;28;19920;-45
2022/06/20 16:06:36;;;;;;;;;;;;;;;;;;5117970;28;19919;-45
2022/06/20 16:09:01;;;;;;;;;;;;;;;;;;5115599;28;19912;-43
2022/06/20 16:11:26;;;;;;;;;;;;;;;;;;5115475;28;19911;-44
2022/06/20 16:13:52;;;;;;;;;;;;;;;;;;5116285;28;19919;-44
2022/06/20 16:16:17;;;;;;;;;;;;;;;;;;5116224;28;20286;-44
2022/06/20 16:18:44;;;;;;;;;;;;;;;;;;5116103;28;20381;-44
2022/06/20 16:21:09;;;;;;;;;;;;;;;;;;5116223;28;19923;-43
2022/06/20 16:23:34;;;;;;;;;;;;;;;;;;5116142;28;19912;-45
2022/06/20 16:26:00;;;;;;;;;;;;;;;;;;5115965;28;19904;-44
2022/06/20 16:28:25;;;;;;;;;;;;;;;;;;5115795;28;19920;-44
2022/06/20 16:30:50;;;;;;;;;;;;;;;;;;5115893;28;20255;-42
2022/06/20 16:33:16;;;;;;;;;;;;;;;;;;5115905;28;20018;-42
2022/06/20 16:35:41;;;;;;;;;;;;;;;;;;5116229;28;19964;-41
2022/06/20 16:38:06;;;;;;;;;;;;;;;;;;5115835;28;19911;-42
2022/06/20 16:40:31;;;;;;;;;;;;;;;;;;5115947;28;19915;-43